createdAt,value
2022-11-28T00:01:30.964Z,4.90
2022-11-28T00:03:57.986Z,4.90
2022-11-28T00:06:28.368Z,4.90
2022-11-28T00:08:58.073Z,4.90
2022-11-28T00:11:29.727Z,4.90
2022-11-28T00:13:56.751Z,4.80
2022-11-28T00:16:24.463Z,4.80
2022-11-28T00:18:53.665Z,4.80
2022-11-28T00:21:21.235Z,4.70
2022-11-28T00:23:49.146Z,4.60
2022-11-28T00:26:18.294Z,4.60
2022-11-28T00:28:45.277Z,4.60
2022-11-28T00:31:19.431Z,4.60
2022-11-28T00:33:51.607Z,4.70
2022-11-28T00:36:19.556Z,4.60
2022-11-28T00:38:46.865Z,4.60
2022-11-28T00:41:18.220Z,4.70
2022-11-28T00:43:49.569Z,4.70
2022-11-28T00:46:18.176Z,4.60
2022-11-28T00:48:47.547Z,4.60
2022-11-28T00:51:23.745Z,4.60
2022-11-28T00:53:52.884Z,4.60
2022-11-28T00:56:27.477Z,4.60
2022-11-28T00:58:54.823Z,4.50
2022-11-28T01:01:24.764Z,4.50
2022-11-28T01:03:53.645Z,4.40
2022-11-28T01:06:47.790Z,4.40
2022-11-28T01:09:18.159Z,4.40
2022-11-28T01:11:46.704Z,4.40
2022-11-28T01:14:14.082Z,4.30
2022-11-28T01:16:43.572Z,4.30
2022-11-28T01:19:10.793Z,4.30
2022-11-28T01:21:37.783Z,4.20
2022-11-28T01:24:05.174Z,4.20
2022-11-28T01:26:32.311Z,4.20
2022-11-28T01:29:00.740Z,4.10
2022-11-28T01:31:29.179Z,4.20
2022-11-28T01:33:56.668Z,4.20
2022-11-28T01:36:26.615Z,4.10
2022-11-28T01:38:53.637Z,4.10
2022-11-28T01:41:25.286Z,4.10
2022-11-28T01:43:58.938Z,4.20
2022-11-28T01:46:28.351Z,4.10
2022-11-28T01:49:02.281Z,4.20
2022-11-28T01:51:32.675Z,4.10
2022-11-28T01:54:04.927Z,4.10
2022-11-28T01:56:45.164Z,4.20
2022-11-28T01:59:15.207Z,4.20
2022-11-28T02:01:44.656Z,4.20
2022-11-28T02:04:13.957Z,4.20
2022-11-28T02:06:42.353Z,4.20
2022-11-28T02:09:14.364Z,4.20
2022-11-28T02:12:22.984Z,4.20
2022-11-28T02:15:03.453Z,4.20
2022-11-28T02:17:45.507Z,4.20
2022-11-28T02:20:40.461Z,4.20
2022-11-28T02:23:10.107Z,4.20
2022-11-28T02:26:29.944Z,4.30
2022-11-28T02:29:28.072Z,4.20
2022-11-28T02:32:13.853Z,4.30
2022-11-28T02:34:57.451Z,4.30
2022-11-28T02:37:38.817Z,4.30
2022-11-28T02:40:08.848Z,4.30
2022-11-28T02:43:12.295Z,4.30
2022-11-28T02:45:54.138Z,4.30
2022-11-28T02:48:56.258Z,4.30
2022-11-28T02:51:29.294Z,4.30
2022-11-28T02:53:58.547Z,4.30
2022-11-28T02:56:26.179Z,4.30
2022-11-28T02:58:53.325Z,4.30
2022-11-28T03:01:29.771Z,4.30
2022-11-28T03:04:19.432Z,4.30
2022-11-28T03:07:08.296Z,4.30
2022-11-28T03:10:16.592Z,4.30
2022-11-28T03:13:16.912Z,4.30
2022-11-28T03:15:59.900Z,4.30
2022-11-28T03:18:38.690Z,4.30
2022-11-28T03:21:18.302Z,4.30
2022-11-28T03:23:48.555Z,4.30
2022-11-28T03:26:34.135Z,4.30
2022-11-28T03:29:21.628Z,4.30
2022-11-28T03:31:55.193Z,4.30
2022-11-28T03:34:26.129Z,4.30
2022-11-28T03:37:01.544Z,4.40
2022-11-28T03:39:34.295Z,4.40
2022-11-28T03:42:23.720Z,4.40
2022-11-28T03:45:19.732Z,4.30
2022-11-28T03:47:52.399Z,4.10
2022-11-28T03:50:33.910Z,4.10
2022-11-28T03:53:05.671Z,4.10
2022-11-28T03:55:42.808Z,4.10
2022-11-28T03:58:16.940Z,4.10
2022-11-28T04:00:51.666Z,4.10
2022-11-28T04:03:38.497Z,4.10
2022-11-28T04:06:21.955Z,4.10
2022-11-28T04:09:15.099Z,4.10
2022-11-28T04:11:55.573Z,4.10
2022-11-28T04:14:26.485Z,4.00
2022-11-28T04:17:17.442Z,4.00
2022-11-28T04:19:48.948Z,4.00
2022-11-28T04:22:15.810Z,3.90
2022-11-28T04:25:06.017Z,3.90
2022-11-28T04:27:40.002Z,3.90
2022-11-28T04:30:08.855Z,3.90
2022-11-28T04:32:42.650Z,3.90
2022-11-28T04:35:19.485Z,3.90
2022-11-28T04:37:51.627Z,3.90
2022-11-28T04:40:22.743Z,3.90
2022-11-28T04:42:57.984Z,3.90
2022-11-28T04:45:39.256Z,3.90
2022-11-28T04:48:09.087Z,3.80
2022-11-28T04:50:54.972Z,3.80
2022-11-28T04:53:40.357Z,3.70
2022-11-28T04:56:15.852Z,3.70
2022-11-28T04:58:46.443Z,3.70
2022-11-28T05:01:19.203Z,3.70
2022-11-28T05:03:46.440Z,3.70
2022-11-28T05:06:27.602Z,3.70
2022-11-28T05:08:54.752Z,3.70
2022-11-28T05:11:21.881Z,3.80
2022-11-28T05:13:49.059Z,3.80
2022-11-28T05:16:16.699Z,3.80
2022-11-28T05:18:44.018Z,3.80
2022-11-28T05:21:10.978Z,3.80
2022-11-28T05:23:39.955Z,3.80
2022-11-28T05:26:18.196Z,3.80
2022-11-28T05:28:49.813Z,3.80
2022-11-28T05:31:21.488Z,3.80
2022-11-28T05:33:50.645Z,3.90
2022-11-28T05:36:21.101Z,3.90
2022-11-28T05:38:50.607Z,3.80
2022-11-28T05:41:29.347Z,3.90
2022-11-28T05:43:58.072Z,3.90
2022-11-28T05:46:28.600Z,3.90
2022-11-28T05:48:58.038Z,4.00
2022-11-28T05:51:25.392Z,4.00
2022-11-28T05:53:54.781Z,4.00
2022-11-28T05:56:24.316Z,4.00
2022-11-28T05:58:54.220Z,3.90
2022-11-28T06:01:30.915Z,4.00
2022-11-28T06:04:01.167Z,4.00
2022-11-28T06:06:33.288Z,4.00
2022-11-28T06:09:04.080Z,3.90
2022-11-28T06:11:33.037Z,3.80
2022-11-28T06:14:03.322Z,3.90
2022-11-28T06:16:31.356Z,3.80
2022-11-28T06:19:05.688Z,3.80
2022-11-28T06:21:33.003Z,3.70
2022-11-28T06:24:00.484Z,3.70
2022-11-28T06:26:28.788Z,3.60
2022-11-28T06:28:56.264Z,3.70
2022-11-28T06:31:28.228Z,3.60
2022-11-28T06:33:55.297Z,3.60
2022-11-28T06:36:22.528Z,3.60
2022-11-28T06:38:49.480Z,3.60
2022-11-28T06:41:20.161Z,3.50
2022-11-28T06:43:47.293Z,3.50
2022-11-28T06:46:21.633Z,3.50
2022-11-28T06:48:50.943Z,3.50
2022-11-28T06:51:18.353Z,3.60
2022-11-28T06:53:49.887Z,3.60
2022-11-28T06:56:21.188Z,3.70
2022-11-28T06:58:57.679Z,3.70
2022-11-28T07:01:27.433Z,3.70
2022-11-28T07:03:54.923Z,3.80
2022-11-28T07:06:25.326Z,3.70
2022-11-28T07:08:53.622Z,3.80
2022-11-28T07:11:31.617Z,3.80
2022-11-28T07:14:04.935Z,3.80
2022-11-28T07:16:33.426Z,3.80
2022-11-28T07:19:05.310Z,3.80
2022-11-28T07:21:32.761Z,3.80
2022-11-28T07:23:59.830Z,3.80
2022-11-28T07:26:26.829Z,3.90
2022-11-28T07:28:56.173Z,3.90
2022-11-28T07:31:31.826Z,3.90
2022-11-28T07:34:02.329Z,3.90
2022-11-28T07:36:30.638Z,3.90
2022-11-28T07:39:01.978Z,3.90
2022-11-28T07:41:29.475Z,3.90
2022-11-28T07:43:59.134Z,4.00
2022-11-28T07:46:27.028Z,4.10
2022-11-28T07:48:56.753Z,4.20
2022-11-28T07:51:27.069Z,4.20
2022-11-28T07:53:56.775Z,4.20
2022-11-28T07:56:35.023Z,4.20
2022-11-28T07:59:07.395Z,4.30
2022-11-28T08:01:36.147Z,4.30
2022-11-28T08:04:08.432Z,4.30
2022-11-28T08:06:41.183Z,4.30
2022-11-28T08:09:08.896Z,4.30
2022-11-28T08:11:36.409Z,4.30
2022-11-28T08:14:06.609Z,4.30
2022-11-28T08:16:41.356Z,4.40
2022-11-28T08:19:10.785Z,4.40
2022-11-28T08:21:38.455Z,4.50
2022-11-28T08:24:05.741Z,4.50
2022-11-28T08:26:33.328Z,4.60
2022-11-28T08:29:02.021Z,4.70
2022-11-28T08:31:37.454Z,4.80
2022-11-28T08:34:09.744Z,4.70
2022-11-28T08:36:37.231Z,4.70
2022-11-28T08:39:23.534Z,4.70
2022-11-28T08:41:59.578Z,4.80
2022-11-28T08:44:30.183Z,4.70
2022-11-28T08:47:00.649Z,4.70
2022-11-28T08:49:27.737Z,4.90
2022-11-28T08:51:54.584Z,5.10
2022-11-28T08:54:21.530Z,5.20
2022-11-28T08:56:48.602Z,5.40
2022-11-28T08:59:19.929Z,5.50
2022-11-28T09:01:47.071Z,5.60
2022-11-28T09:04:14.383Z,5.70
2022-11-28T09:06:41.448Z,5.40
2022-11-28T09:09:10.684Z,5.30
2022-11-28T09:11:40.260Z,5.30
2022-11-28T09:14:07.578Z,5.40
2022-11-28T09:16:34.593Z,5.70
2022-11-28T09:19:01.659Z,5.80
2022-11-28T09:21:28.780Z,5.90
2022-11-28T09:24:00.646Z,6.00
2022-11-28T09:26:27.739Z,6.10
2022-11-28T09:28:54.743Z,6.20
2022-11-28T09:31:24.776Z,6.20
2022-11-28T09:33:51.847Z,6.30
2022-11-28T09:36:23.588Z,6.40
2022-11-28T09:38:51.270Z,6.30
2022-11-28T09:41:38.265Z,6.40
2022-11-28T09:44:14.303Z,6.30
2022-11-28T09:46:44.774Z,6.40
2022-11-28T09:49:52.574Z,6.60
2022-11-28T09:52:34.824Z,6.80
2022-11-28T09:55:35.557Z,6.90
2022-11-28T09:58:10.862Z,7.00
2022-11-28T10:00:44.421Z,7.10
2022-11-28T10:03:17.586Z,7.30
2022-11-28T10:05:50.472Z,7.50
2022-11-28T10:08:22.542Z,7.40
2022-11-28T10:11:03.708Z,7.40
2022-11-28T10:16:51.771Z,7.80
2022-11-28T10:19:58.283Z,7.90
2022-11-28T10:22:54.477Z,7.90
2022-11-28T10:25:26.458Z,8.20
2022-11-28T10:27:57.255Z,8.40
2022-11-28T10:30:26.869Z,8.40
2022-11-28T10:33:23.613Z,8.30
2022-11-28T10:36:03.239Z,8.40
2022-11-28T10:38:34.991Z,8.50
2022-11-28T10:41:04.658Z,8.50
2022-11-28T10:44:15.828Z,8.50
2022-11-28T10:47:21.179Z,8.50
2022-11-28T10:49:50.842Z,8.40
2022-11-28T10:52:53.641Z,8.20
2022-11-28T10:55:32.820Z,8.10
2022-11-28T10:58:20.804Z,8.00
2022-11-28T11:00:57.309Z,8.00
2022-11-28T11:03:32.926Z,8.10
2022-11-28T11:06:03.115Z,8.10
2022-11-28T11:08:37.215Z,8.20
2022-11-28T11:11:13.223Z,8.40
2022-11-28T11:14:02.930Z,8.50
2022-11-28T11:16:53.254Z,8.70
2022-11-28T11:19:31.225Z,8.70
2022-11-28T11:21:59.276Z,8.70
2022-11-28T11:24:26.202Z,8.90
2022-11-28T11:26:53.286Z,9.00
2022-11-28T11:29:35.567Z,9.00
2022-11-28T11:32:06.962Z,8.80
2022-11-28T11:34:44.382Z,8.60
2022-11-28T11:37:38.681Z,8.60
2022-11-28T11:40:32.699Z,8.70
2022-11-28T11:43:03.393Z,8.70
2022-11-28T11:45:30.541Z,8.70
2022-11-28T11:48:00.774Z,8.70
2022-11-28T11:50:30.478Z,8.60
2022-11-28T11:53:09.745Z,8.70
2022-11-28T11:55:54.240Z,8.70
2022-11-28T11:58:25.579Z,8.70
2022-11-28T12:00:58.732Z,8.90
2022-11-28T12:03:39.614Z,9.00
2022-11-28T12:06:36.984Z,9.20
2022-11-28T12:09:39.798Z,9.10
2022-11-28T12:12:12.817Z,8.90
2022-11-28T12:14:42.963Z,8.70
2022-11-28T12:20:21.492Z,9.00
2022-11-28T12:23:08.646Z,9.20
2022-11-28T12:26:02.652Z,9.30
2022-11-28T12:29:06.200Z,9.30
2022-11-28T12:31:58.095Z,9.40
2022-11-28T12:34:42.524Z,9.50
2022-11-28T12:37:09.491Z,9.30
2022-11-28T12:40:02.763Z,9.30
2022-11-28T12:43:05.587Z,9.30
2022-11-28T12:46:02.914Z,9.20
2022-11-28T12:48:46.298Z,9.30
2022-11-28T12:51:30.025Z,9.00
2022-11-28T12:54:24.497Z,9.10
2022-11-28T12:56:58.205Z,9.30
2022-11-28T12:59:33.994Z,9.50
2022-11-28T13:02:19.770Z,9.70
2022-11-28T13:04:52.480Z,9.80
2022-11-28T13:07:30.224Z,9.80
2022-11-28T13:10:06.286Z,9.80
2022-11-28T13:12:41.594Z,9.90
2022-11-28T13:15:38.556Z,10.00
2022-11-28T13:18:33.494Z,9.90
2022-11-28T13:21:25.785Z,9.90
2022-11-28T13:23:55.997Z,10.00
2022-11-28T13:26:40.421Z,10.10
2022-11-28T13:29:29.273Z,10.10
2022-11-28T13:32:20.493Z,10.10
2022-11-28T13:34:48.970Z,10.10
2022-11-28T13:40:41.293Z,10.20
2022-11-28T13:43:14.793Z,10.10
2022-11-28T13:45:46.774Z,9.90
2022-11-28T13:51:33.938Z,9.90
2022-11-28T13:54:22.249Z,9.90
2022-11-28T13:57:14.987Z,9.80
2022-11-28T14:00:01.454Z,9.70
2022-11-28T14:02:42.701Z,9.70
2022-11-28T14:05:30.875Z,9.70
2022-11-28T14:07:58.611Z,9.80
2022-11-28T14:10:35.918Z,9.70
2022-11-28T14:13:16.049Z,9.70
2022-11-28T14:16:21.700Z,9.80
2022-11-28T14:19:22.931Z,9.80
2022-11-28T14:21:49.880Z,9.60
2022-11-28T14:24:31.846Z,9.60
2022-11-28T14:27:02.554Z,9.60
2022-11-28T14:29:41.965Z,9.60
2022-11-28T14:32:31.224Z,9.60
2022-11-28T14:35:00.655Z,9.60
2022-11-28T14:37:30.203Z,9.60
2022-11-28T14:39:58.138Z,9.50
2022-11-28T14:42:58.387Z,9.50
2022-11-28T14:45:30.688Z,9.40
2022-11-28T14:48:42.264Z,9.30
2022-11-28T14:51:12.530Z,9.30
2022-11-28T14:53:45.518Z,9.20
2022-11-28T14:56:24.376Z,9.20
2022-11-28T14:58:56.292Z,9.10
2022-11-28T15:01:46.140Z,9.00
2022-11-28T15:04:33.441Z,9.00
2022-11-28T15:07:05.842Z,8.90
2022-11-28T15:09:49.133Z,8.90
2022-11-28T15:12:44.489Z,8.90
2022-11-28T15:15:17.647Z,8.90
2022-11-28T15:17:46.385Z,8.80
2022-11-28T15:20:31.944Z,8.80
2022-11-28T15:23:02.358Z,8.70
2022-11-28T15:25:37.475Z,8.70
2022-11-28T15:28:15.700Z,8.70
2022-11-28T15:30:51.299Z,8.60
2022-11-28T15:33:18.886Z,8.50
2022-11-28T15:36:01.556Z,8.50
2022-11-28T15:38:30.988Z,8.50
2022-11-28T15:41:00.979Z,8.50
2022-11-28T15:43:31.595Z,8.40
2022-11-28T15:46:01.231Z,8.40
2022-11-28T15:48:40.342Z,8.30
2022-11-28T15:51:08.869Z,8.30
2022-11-28T15:53:42.392Z,8.20
2022-11-28T15:56:11.376Z,8.20
2022-11-28T15:58:40.512Z,8.20
2022-11-28T16:01:28.827Z,8.20
2022-11-28T16:04:02.855Z,8.10
2022-11-28T16:06:33.016Z,8.10
2022-11-28T16:09:05.886Z,8.10
2022-11-28T16:11:36.404Z,8.10
2022-11-28T16:14:09.966Z,8.00
2022-11-28T16:16:41.013Z,8.00
2022-11-28T16:19:19.505Z,8.00
2022-11-28T16:21:59.807Z,8.00
2022-11-28T16:25:17.558Z,8.00
2022-11-28T16:27:47.456Z,7.90
2022-11-28T16:30:34.655Z,7.80
2022-11-28T16:33:01.796Z,7.90
2022-11-28T16:35:43.173Z,7.80
2022-11-28T16:38:19.034Z,7.70
2022-11-28T16:40:46.205Z,7.70
2022-11-28T16:43:35.991Z,7.70
2022-11-28T16:46:08.035Z,7.70
2022-11-28T16:48:37.278Z,7.70
2022-11-28T16:51:35.405Z,7.70
2022-11-28T16:54:40.990Z,7.70
2022-11-28T16:57:11.054Z,7.70
2022-11-28T16:59:39.363Z,7.70
2022-11-28T17:02:20.592Z,7.70
2022-11-28T17:04:49.539Z,7.60
2022-11-28T17:07:22.033Z,7.60
2022-11-28T17:09:50.549Z,7.50
2022-11-28T17:12:23.819Z,7.50
2022-11-28T17:14:50.891Z,7.50
2022-11-28T17:17:23.345Z,7.50
2022-11-28T17:19:51.046Z,7.50
2022-11-28T17:22:23.794Z,7.50
2022-11-28T17:24:57.063Z,7.40
2022-11-28T17:27:24.115Z,7.40
2022-11-28T17:29:51.070Z,7.40
2022-11-28T17:32:20.181Z,7.40
2022-11-28T17:34:49.752Z,7.30
2022-11-28T17:37:18.114Z,7.30
2022-11-28T17:40:05.169Z,7.30
2022-11-28T17:42:34.809Z,7.40
2022-11-28T17:45:11.603Z,7.30
2022-11-28T17:47:38.672Z,7.30
2022-11-28T17:50:11.232Z,7.30
2022-11-28T17:52:38.299Z,7.30
2022-11-28T17:55:10.567Z,7.40
2022-11-28T17:57:37.767Z,7.50
2022-11-28T18:00:07.638Z,7.50
2022-11-28T18:02:43.258Z,7.40
2022-11-28T18:05:12.545Z,7.30
2022-11-28T18:07:40.241Z,7.30
2022-11-28T18:10:11.213Z,7.20
2022-11-28T18:12:41.077Z,7.20
2022-11-28T18:15:11.051Z,7.10
2022-11-28T18:17:41.143Z,7.10
2022-11-28T18:20:08.683Z,7.10
2022-11-28T18:22:35.954Z,7.10
2022-11-28T18:25:08.253Z,7.20
2022-11-28T18:27:35.425Z,7.20
2022-11-28T18:30:02.405Z,7.20
2022-11-28T18:32:29.526Z,7.20
2022-11-28T18:35:01.989Z,7.20
2022-11-28T18:37:29.409Z,7.20
2022-11-28T18:39:57.415Z,7.30
2022-11-28T18:42:24.601Z,7.30
2022-11-28T18:44:56.114Z,7.30
2022-11-28T18:47:28.367Z,7.20
2022-11-28T18:50:00.570Z,7.20
2022-11-28T18:52:27.848Z,7.20
2022-11-28T18:54:55.165Z,7.10
2022-11-28T18:57:31.177Z,7.20
2022-11-28T18:59:59.593Z,7.20
2022-11-28T19:02:32.588Z,7.20
2022-11-28T19:04:59.993Z,7.20
2022-11-28T19:07:29.602Z,7.20
2022-11-28T19:10:02.621Z,7.20
2022-11-28T19:12:30.248Z,7.20
2022-11-28T19:15:02.096Z,7.20
2022-11-28T19:17:32.431Z,7.20
2022-11-28T19:20:03.283Z,7.20
2022-11-28T19:22:31.012Z,7.20
2022-11-28T19:24:58.134Z,7.20
2022-11-28T19:27:27.389Z,7.20
2022-11-28T19:29:54.359Z,7.20
2022-11-28T19:32:24.711Z,7.30
2022-11-28T19:34:56.096Z,7.20
2022-11-28T19:37:25.882Z,7.20
2022-11-28T19:39:52.980Z,7.30
2022-11-28T19:42:22.320Z,7.20
2022-11-28T19:44:50.401Z,7.20
2022-11-28T19:47:20.271Z,7.20
2022-11-28T19:49:48.180Z,7.20
2022-11-28T19:52:15.237Z,7.30
2022-11-28T19:54:42.350Z,7.30
2022-11-28T19:57:11.352Z,7.30
2022-11-28T19:59:38.517Z,7.40
2022-11-28T20:02:09.038Z,7.40
2022-11-28T20:04:40.439Z,7.50
2022-11-28T20:07:07.467Z,7.40
2022-11-28T20:09:34.940Z,7.40
2022-11-28T20:12:05.569Z,7.40
2022-11-28T20:14:35.217Z,7.50
2022-11-28T20:17:03.621Z,7.50
2022-11-28T20:19:31.426Z,7.60
2022-11-28T20:22:05.148Z,7.60
2022-11-28T20:24:33.131Z,7.60
2022-11-28T20:27:01.060Z,7.60
2022-11-28T20:29:28.909Z,7.60
2022-11-28T20:31:57.484Z,7.60
2022-11-28T20:34:27.037Z,7.60
2022-11-28T20:36:54.221Z,7.60
2022-11-28T20:39:21.694Z,7.60
2022-11-28T20:41:51.297Z,7.50
2022-11-28T20:44:19.034Z,7.60
2022-11-28T20:46:49.955Z,7.50
2022-11-28T20:49:17.648Z,7.50
2022-11-28T20:51:50.422Z,7.50
2022-11-28T20:54:18.048Z,7.50
2022-11-28T20:59:35.348Z,7.50
2022-11-28T21:02:04.498Z,7.50
2022-11-28T21:04:33.936Z,7.60
2022-11-28T21:07:00.974Z,7.50
2022-11-28T21:09:32.379Z,7.50
2022-11-28T21:11:59.692Z,7.50
2022-11-28T21:14:29.668Z,7.50
2022-11-28T21:16:59.654Z,7.50
2022-11-28T21:19:27.294Z,7.50
2022-11-28T21:21:54.474Z,7.50
2022-11-28T21:24:21.461Z,7.50
2022-11-28T21:26:53.588Z,7.50
2022-11-28T21:29:26.607Z,7.50
2022-11-28T21:31:56.215Z,7.50
2022-11-28T21:34:23.395Z,7.60
2022-11-28T21:36:50.687Z,7.50
2022-11-28T21:39:20.170Z,7.50
2022-11-28T21:41:47.628Z,7.50
2022-11-28T21:44:16.923Z,7.40
2022-11-28T21:46:44.614Z,7.50
2022-11-28T21:49:15.025Z,7.50
2022-11-28T21:51:44.204Z,7.40
2022-11-28T21:54:12.133Z,7.40
2022-11-28T21:56:41.934Z,7.50
2022-11-28T21:59:09.451Z,7.50
2022-11-28T22:01:36.586Z,7.50
2022-11-28T22:04:03.755Z,7.50
2022-11-28T22:06:31.527Z,7.50
2022-11-28T22:11:50.602Z,7.50
2022-11-28T22:14:20.127Z,7.50
2022-11-28T22:16:52.746Z,7.50
2022-11-28T22:19:19.809Z,7.50
2022-11-28T22:21:52.212Z,7.50
2022-11-28T22:24:21.147Z,7.50
2022-11-28T22:26:48.807Z,7.50
2022-11-28T22:29:20.490Z,7.50
2022-11-28T22:31:49.043Z,7.50
2022-11-28T22:34:18.197Z,7.50
2022-11-28T22:36:47.789Z,7.50
2022-11-28T22:39:19.011Z,7.40
2022-11-28T22:41:50.907Z,7.30
2022-11-28T22:44:21.743Z,7.30
2022-11-28T22:46:50.982Z,7.30
2022-11-28T22:49:21.263Z,7.30
2022-11-28T22:51:48.247Z,7.30
2022-11-28T22:54:17.294Z,7.30
2022-11-28T22:56:44.462Z,7.30
2022-11-28T22:59:15.073Z,7.20
2022-11-28T23:01:43.508Z,7.10
2022-11-28T23:04:13.563Z,7.10
2022-11-28T23:06:41.844Z,7.10
2022-11-28T23:09:12.514Z,7.10
2022-11-28T23:11:40.364Z,7.10
2022-11-28T23:14:07.702Z,7.00
2022-11-28T23:16:38.797Z,7.00
2022-11-28T23:19:15.696Z,7.00
2022-11-28T23:21:44.784Z,7.00
2022-11-28T23:24:18.218Z,7.00
2022-11-28T23:26:46.625Z,7.00
2022-11-28T23:29:14.262Z,7.00
2022-11-28T23:31:43.380Z,7.00
2022-11-28T23:34:11.525Z,7.00
2022-11-28T23:36:44.853Z,6.90
2022-11-28T23:39:15.133Z,6.90
2022-11-28T23:41:42.596Z,7.00
2022-11-28T23:44:15.606Z,6.90
2022-11-28T23:46:45.410Z,6.90
2022-11-28T23:49:15.691Z,6.90
2022-11-28T23:51:47.406Z,6.90
2022-11-28T23:54:14.735Z,6.90
2022-11-28T23:56:41.692Z,6.90
2022-11-28T23:59:10.952Z,6.90
